Edwall, Washington
Current Conditions -  °F | °C
As of 9:28 PM on Saturday 20 Dec 2014 (Local Time) from KSKA Reporting Station
Light Rain Light Rain  
Wind Chill: 33°   Ceiling: 400
Heat Index: 41°   Visibility: 10mi
Dew Point: 41°   Wind: 15mph
Humidity: 100%   Direction: 170°S
Pressure: 29.5"   Gusts: NA
Location:  47.5°N, 117.95°W
Report Text: KSKA 210528Z AUTO 17013KT 10SM -RA OVC004 05/05 A2950 RMK AO2
Loading
Personal Weather Stations






























Interactive Weather Map New forecast layout! Learn more

10-Day Weather Forecast

Advertisements
Track Severe Weather on mobile